CET,Max TemperatureF,Mean TemperatureF,Min TemperatureF,Max Dew PointF,MeanDew PointF,Min DewpointF,Max Humidity, Mean Humidity, Min Humidity, Max Sea Level PressureIn, Mean Sea Level PressureIn, Min Sea Level PressureIn, Max VisibilityMiles, Mean VisibilityMiles, Min VisibilityMiles, Max Wind SpeedMPH, Mean Wind SpeedMPH, Max Gust SpeedMPH,PrecipitationIn, CloudCover, Events, WindDirDegrees
2013-1-1,39,34,30,28,27,27,86,72,61,30.04,29.96,29.92,6,6,5,13,8,,0.00,6,,208
2013-1-2,32,30,28,30,28,27,93,92,86,30.39,30.19,30.01,4,3,0,9,7,,0.00,8,Fog-Snow,190
2013-1-3,39,34,28,37,32,27,100,91,75,30.42,30.35,30.27,6,4,0,12,8,,0.00,7,Fog-Rain-Snow,204
2013-1-4,44,42,39,39,38,36,100,86,71,30.30,30.21,30.06,6,5,1,18,8,29,0.00,7,Rain,261
2013-1-5,44,38,33,41,37,28,100,90,75,30.27,30.11,30.04,6,5,2,9,4,,0.00,7,Rain,357
2013-1-6,33,30,28,34,30,27,100,93,86,30.27,30.13,30.04,4,2,1,8,2,,0.00,8,Rain-Snow,177
2013-1-7,35,27,19,32,23,16,87,78,69,30.39,30.29,30.09,6,6,6,13,8,,0.00,4,,66
2013-1-8,26,22,19,27,22,18,100,90,80,30.36,30.27,30.18,5,2,1,9,4,,0.00,8,Snow,173
2013-1-9,33,30,26,32,29,27,100,96,93,30.18,30.11,29.95,2,1,0,12,3,,0.00,8,Fog-Snow,194
2013-1-10,37,34,30,34,31,28,100,93,70,29.92,29.80,29.68,6,4,1,15,10,,0.00,7,Rain-Snow,197
2013-1-11,37,29,21,30,26,18,100,86,69,29.98,29.77,29.65,6,5,1,21,6,,0.00,7,Rain-Snow,294
2013-1-12,26,22,17,19,17,14,93,78,69,30.04,30.01,29.95,6,6,6,9,5,,0.00,5,,215
2013-1-13,24,22,19,21,18,16,93,86,80,30.09,30.07,30.04,6,4,2,9,5,,0.00,7,Snow,124
2013-1-14,24,24,23,23,21,19,93,90,86,30.06,29.96,29.89,3,2,1,12,8,,0.00,8,Snow,98
2013-1-15,33,28,23,32,26,23,100,93,86,29.92,29.82,29.71,3,2,1,6,1,,0.00,8,,291
2013-1-16,32,30,28,32,29,25,100,91,86,29.71,29.66,29.65,3,2,1,17,5,,0.00,8,Snow,54
2013-1-17,28,26,24,25,22,19,86,80,74,29.83,29.72,29.65,5,4,3,20,13,,0.00,8,,54
2013-1-18,24,22,21,19,16,14,86,76,68,29.83,29.73,29.62,6,5,2,18,12,30,0.00,8,Snow,41
2013-1-19,23,22,21,18,16,16,86,80,74,29.62,29.56,29.53,6,4,2,18,13,22,0.00,8,,63
2013-1-20,26,24,21,25,21,18,93,89,86,29.56,29.51,29.44,2,1,1,16,7,,0.00,8,,83
2013-1-21,28,26,24,25,24,21,93,91,80,29.53,29.46,29.42,2,2,1,16,11,,0.00,8,Rain-Snow,40
2013-1-22,23,21,19,19,17,14,93,82,74,29.74,29.64,29.53,2,2,2,12,7,,0.00,8,Snow,73
2013-1-23,23,21,19,19,15,12,86,78,68,29.83,29.79,29.74,3,3,2,10,5,,0.00,8,,88
2013-1-24,30,26,21,25,21,18,93,84,75,29.89,29.83,29.80,5,2,1,17,4,,0.00,7,,63
2013-1-25,24,22,21,18,14,12,80,74,68,30.06,30.01,29.92,6,4,2,23,10,24,0.00,8,Snow,41
2013-1-26,23,14,5,14,12,1,92,80,68,30.04,30.01,29.98,6,5,1,21,11,26,0.00,6,,72
2013-1-27,21,14,6,19,14,3,93,87,80,30.01,29.93,29.83,3,2,1,9,3,,0.00,7,Snow,196
2013-1-28,28,24,21,25,22,19,93,89,80,30.12,29.96,29.83,2,1,1,5,1,,0.00,8,Snow,208
2013-1-29,35,30,26,34,30,23,100,91,86,30.12,29.99,29.92,6,4,2,14,7,,0.00,8,Rain-Snow,177
2013-1-30,44,38,35,41,37,34,100,94,87,29.95,29.84,29.71,6,5,2,14,9,29,0.00,7,Rain,187
2013-1-31,46,42,37,39,32,28,87,68,53,29.95,29.86,29.77,6,6,6,21,9,34,0.00,4,Rain,268